Time;durP1;ratioP1;P1;durP2;ratioP2;P2;SDS_P1;SDS_P2;PMS_P1;PMS_P2;Temp;Humidity;BMP_temperature;BMP_pressure;BME280_temperature;BME280_humidity;BME280_pressure;Samples;Min_cycle;Max_cycle;Signal;HPM_P1;HPM_P2
2020/12/04 00:01:09;;;;;;;14.77;13.27;;;;;;;20.51;41.10;96611.34;5000262;28;20035;-76
2020/12/04 00:03:34;;;;;;;13.88;12.45;;;;;;;20.51;41.05;96601.66;4995476;28;20080;-79
2020/12/04 00:06:00;;;;;;;13.25;11.95;;;;;;;20.49;41.42;96605.34;4988422;28;20042;-80
2020/12/04 00:08:25;;;;;;;13.25;11.85;;;;;;;20.50;41.31;96604.41;4996090;28;20093;-80
2020/12/04 00:10:50;;;;;;;13.00;11.60;;;;;;;20.49;41.16;96602.72;4997251;28;20033;-81
2020/12/04 00:13:16;;;;;;;12.75;11.43;;;;;;;20.49;41.18;96593.06;4977686;28;20041;-80
2020/12/04 00:15:41;;;;;;;11.90;10.63;;;;;;;20.50;41.38;96599.13;4991999;28;20084;-78
2020/12/04 00:18:06;;;;;;;13.07;11.15;;;;;;;20.51;41.31;96590.28;4991793;28;20027;-78
2020/12/04 00:20:32;;;;;;;12.50;10.80;;;;;;;20.49;41.03;96581.69;4991569;28;20038;-79
2020/12/04 00:22:57;;;;;;;11.80;10.60;;;;;;;20.48;41.07;96580.88;4991871;28;20105;-79
2020/12/04 00:25:23;;;;;;;12.23;10.63;;;;;;;20.47;41.09;96571.31;4994121;28;20106;-80
2020/12/04 00:27:48;;;;;;;10.95;9.57;;;;;;;20.48;41.12;96565.09;4977023;28;20109;-78
2020/12/04 00:30:14;;;;;;;10.38;9.27;;;;;;;20.48;41.32;96558.97;4991508;28;20061;-79
2020/12/04 00:32:40;;;;;;;12.75;10.10;;;;;;;20.47;41.44;96555.53;4997297;28;20035;-77
2020/12/04 00:35:05;;;;;;;10.80;9.43;;;;;;;20.48;41.31;96557.19;4977219;28;20030;-79
2020/12/04 00:37:31;;;;;;;10.98;9.15;;;;;;;20.47;41.28;96554.69;4986653;28;20029;-77
2020/12/04 00:39:56;;;;;;;10.98;9.82;;;;;;;20.47;40.98;96544.19;4993588;28;20026;-82
2020/12/04 00:42:22;;;;;;;9.95;8.48;;;;;;;20.47;41.31;96531.84;4982989;28;20030;-79
2020/12/04 00:44:47;;;;;;;10.60;9.48;;;;;;;20.47;41.29;96531.03;4997236;28;20026;-79
2020/12/04 00:47:12;;;;;;;11.05;8.93;;;;;;;20.47;41.14;96531.03;5004498;28;20093;-79
2020/12/04 00:49:38;;;;;;;9.40;8.15;;;;;;;20.44;41.20;96518.13;4975769;28;20191;-79
2020/12/04 00:52:04;;;;;;;9.45;8.23;;;;;;;20.45;41.40;96522.44;5009692;28;20018;-80
2020/12/04 00:54:29;;;;;;;9.20;8.23;;;;;;;20.45;41.23;96515.34;4991267;28;20026;-80
2020/12/04 00:56:55;;;;;;;8.40;7.47;;;;;;;20.46;41.16;96511.78;4994894;28;20038;-79
2020/12/04 00:59:22;;;;;;;8.43;7.55;;;;;;;20.45;41.18;96512.72;4976388;28;20018;-80
2020/12/04 01:01:48;;;;;;;10.05;7.50;;;;;;;20.46;41.33;96503.06;5001624;28;20092;-79
2020/12/04 01:04:13;;;;;;;8.40;7.50;;;;;;;20.45;41.35;96496.13;4994052;28;20034;-79
2020/12/04 01:06:40;;;;;;;8.00;6.80;;;;;;;20.45;41.33;96489.06;4981342;28;20026;-78
2020/12/04 01:09:07;;;;;;;6.95;6.25;;;;;;;20.44;41.46;96490.03;4984786;28;20504;-81
2020/12/04 01:11:33;;;;;;;7.13;6.43;;;;;;;20.45;41.23;96478.53;4974307;28;20045;-78
2020/12/04 01:13:59;;;;;;;8.05;6.95;;;;;;;20.44;41.29;96474.25;4980485;28;20042;-80
2020/12/04 01:16:24;;;;;;;6.65;5.95;;;;;;;20.44;41.22;96479.50;4991849;28;20454;-79
2020/12/04 01:18:50;;;;;;;7.82;6.55;;;;;;;20.45;41.47;96470.66;4990271;28;20034;-81
2020/12/04 01:21:15;;;;;;;7.40;6.60;;;;;;;20.46;41.32;96469.69;4992628;28;20030;-81
2020/12/04 01:23:40;;;;;;;7.45;6.22;;;;;;;20.47;41.35;96465.28;4974558;28;20038;-79
2020/12/04 01:26:07;;;;;;;7.43;6.40;;;;;;;20.47;41.37;96460.84;5008440;28;20018;-77
2020/12/04 01:28:32;;;;;;;7.25;6.18;;;;;;;20.46;41.21;96447.84;4990631;28;20053;-79
2020/12/04 01:30:58;;;;;;;6.82;5.75;;;;;;;20.44;41.39;96453.19;5006499;28;20031;-80
2020/12/04 01:33:23;;;;;;;6.13;5.50;;;;;;;20.44;41.38;96450.56;4991472;28;20026;-81
2020/12/04 01:35:49;;;;;;;7.88;6.00;;;;;;;20.46;41.38;96442.56;4990499;28;20030;-80
2020/12/04 01:38:14;;;;;;;6.35;5.15;;;;;;;20.45;41.13;96435.66;4982423;28;20130;-78
2020/12/04 01:40:40;;;;;;;6.50;5.85;;;;;;;20.45;41.19;96435.66;5006148;28;20157;-77
2020/12/04 01:43:05;;;;;;;5.45;4.95;;;;;;;20.45;41.41;96433.84;4990204;28;20039;-79
2020/12/04 01:45:35;;;;;;;6.05;5.15;;;;;;;20.44;41.39;96421.66;4999842;28;20030;-78
2020/12/04 01:48:00;;;;;;;6.15;5.20;;;;;;;20.45;41.13;96433.03;4990109;28;20035;-79
2020/12/04 01:50:26;;;;;;;5.38;4.75;;;;;;;20.45;41.21;96419.88;4978259;28;20038;-81
2020/12/04 01:52:51;;;;;;;4.93;4.43;;;;;;;20.45;41.16;96412.81;4990319;28;20035;-79
2020/12/04 01:55:17;;;;;;;4.95;4.45;;;;;;;20.46;41.18;96411.84;4973941;28;20041;-78
2020/12/04 01:57:46;;;;;;;5.45;4.95;;;;;;;20.46;41.53;96418.91;4992981;28;20026;-79
2020/12/04 02:00:12;;;;;;;6.57;4.63;;;;;;;20.44;41.07;96408.50;4991383;28;20050;-80
2020/12/04 02:02:38;;;;;;;4.90;4.22;;;;;;;20.44;41.28;96405.88;4990918;28;20038;-79
2020/12/04 02:05:03;;;;;;;5.47;4.25;;;;;;;20.44;41.54;96405.06;5003030;28;20030;-81
2020/12/04 02:07:41;;;;;;;6.07;4.75;;;;;;;20.43;41.27;96400.75;4977929;28;20029;-80
2020/12/04 02:10:19;;;;;;;4.65;4.10;;;;;;;20.44;41.46;96386.66;4989241;28;20041;-79
2020/12/04 02:12:46;;;;;;;5.03;4.15;;;;;;;20.45;41.35;96385.69;5005956;28;20108;-78
2020/12/04 02:15:12;;;;;;;4.65;3.83;;;;;;;20.44;41.33;96381.38;4991031;28;20038;-79
2020/12/04 02:17:37;;;;;;;5.05;4.20;;;;;;;20.43;41.54;96388.41;4977546;28;20030;-78
2020/12/04 02:20:04;;;;;;;5.22;4.15;;;;;;;20.44;41.20;96376.13;4991005;28;20037;-78
2020/12/04 02:22:35;;;;;;;4.57;3.85;;;;;;;20.44;41.28;96365.59;4975592;28;20395;-79
2020/12/04 02:25:00;;;;;;;3.92;3.45;;;;;;;20.44;41.34;96368.22;4999661;28;20022;-79
2020/12/04 02:27:26;;;;;;;5.00;3.90;;;;;;;20.44;41.17;96362.97;4990753;28;20084;-79
2020/12/04 02:29:51;;;;;;;4.68;3.75;;;;;;;20.45;41.33;96360.22;4999326;28;20088;-79
2020/12/04 02:32:16;;;;;;;4.43;3.50;;;;;;;20.44;41.35;96358.53;4989618;28;20023;-80
2020/12/04 02:34:43;;;;;;;4.63;3.60;;;;;;;20.47;41.41;96365.34;4973615;28;20110;-78
2020/12/04 02:37:09;;;;;;;3.60;3.25;;;;;;;20.45;41.38;96360.22;4992978;28;20030;-81
2020/12/04 02:39:35;;;;;;;4.88;3.58;;;;;;;20.45;41.29;96359.38;4983104;28;20037;-78
2020/12/04 02:42:01;;;;;;;4.78;3.78;;;;;;;20.44;41.48;96360.34;4997781;28;20042;-79
2020/12/04 02:44:26;;;;;;;4.47;3.45;;;;;;;20.44;41.42;96357.72;4990392;28;20054;-80
2020/12/04 02:46:55;;;;;;;4.45;3.30;;;;;;;20.44;41.40;96345.38;4991568;28;20041;-80
2020/12/04 02:49:21;;;;;;;3.45;3.15;;;;;;;20.43;41.43;96341.09;4990537;28;20488;-78
2020/12/04 02:51:50;;;;;;;4.20;2.80;;;;;;;20.42;41.68;96354.38;4973491;28;20033;-80
2020/12/04 02:54:16;;;;;;;3.83;3.13;;;;;;;20.43;41.49;96342.91;5003706;28;20096;-81
2020/12/04 02:56:43;;;;;;;3.83;3.08;;;;;;;20.45;41.35;96330.47;5000943;28;20048;-78
2020/12/04 02:59:09;;;;;;;3.60;2.78;;;;;;;20.44;41.66;96342.75;4994205;28;20080;-78
2020/12/04 03:01:36;;;;;;;4.45;3.40;;;;;;;20.45;41.45;96333.91;5001235;28;20033;-79
2020/12/04 03:04:01;;;;;;;3.40;2.65;;;;;;;20.45;41.41;96327.84;5009786;28;20030;-80
2020/12/04 03:06:27;;;;;;;3.42;3.00;;;;;;;20.46;41.41;96324.25;4986077;28;20037;-80
2020/12/04 03:08:52;;;;;;;3.63;2.50;;;;;;;20.45;41.39;96323.38;4995029;28;20031;-79
2020/12/04 03:11:20;;;;;;;3.65;3.08;;;;;;;20.46;41.35;96330.31;4994357;28;20081;-78
2020/12/04 03:13:46;;;;;;;3.65;2.72;;;;;;;20.46;41.52;96316.34;5008758;28;20034;-78
2020/12/04 03:16:12;;;;;;;3.05;2.63;;;;;;;20.45;41.34;96319.94;4986654;28;20387;-79
2020/12/04 03:18:37;;;;;;;3.78;2.53;;;;;;;20.47;41.28;96320.66;5006920;28;20513;-81
2020/12/04 03:21:02;;;;;;;3.50;2.60;;;;;;;20.44;41.48;96323.53;4982830;28;20033;-80
2020/12/04 03:23:28;;;;;;;4.40;2.42;;;;;;;20.47;41.40;96329.38;4977721;28;20032;-79
2020/12/04 03:25:55;;;;;;;3.53;2.65;;;;;;;20.46;41.35;96321.63;4993632;28;20105;-81
2020/12/04 03:28:21;;;;;;;3.63;2.60;;;;;;;20.44;41.69;96326.97;4994437;28;20033;-79
2020/12/04 03:30:46;;;;;;;3.53;2.33;;;;;;;20.45;41.53;96331.28;4978803;28;20433;-80
2020/12/04 03:33:12;;;;;;;2.45;2.10;;;;;;;20.47;41.57;96341.69;4993926;28;20057;-80
2020/12/04 03:35:37;;;;;;;2.60;2.03;;;;;;;20.46;41.54;96325.06;4988836;28;20109;-79
2020/12/04 03:38:02;;;;;;;2.90;2.47;;;;;;;20.46;41.62;96340.03;4988594;28;20049;-80
2020/12/04 03:40:28;;;;;;;2.45;2.05;;;;;;;20.46;41.47;96351.34;4994230;28;20113;-79
2020/12/04 03:42:53;;;;;;;2.25;1.83;;;;;;;20.47;41.37;96341.69;5002555;28;20057;-80
2020/12/04 03:45:18;;;;;;;3.00;2.30;;;;;;;20.48;41.45;96340.69;4993650;28;20026;-79
2020/12/04 03:47:44;;;;;;;2.30;1.80;;;;;;;20.46;41.57;96340.03;5008798;28;20093;-78
2020/12/04 03:50:09;;;;;;;2.60;2.03;;;;;;;20.46;41.39;96348.72;5005784;28;20026;-78
2020/12/04 03:52:35;;;;;;;2.50;1.92;;;;;;;20.45;41.41;96349.69;4997378;28;20038;-80
2020/12/04 03:55:00;;;;;;;2.40;1.95;;;;;;;20.46;41.36;96355.78;4993640;28;20032;-79
2020/12/04 03:57:25;;;;;;;2.20;1.60;;;;;;;20.45;41.55;96349.69;4983636;28;20030;-76
2020/12/04 03:59:51;;;;;;;2.72;1.90;;;;;;;20.48;41.58;96345.97;4992539;28;20100;-79
2020/12/04 04:02:16;;;;;;;2.60;2.17;;;;;;;20.46;41.46;96345.28;4992347;28;20064;-79
2020/12/04 04:04:42;;;;;;;2.15;1.50;;;;;;;20.47;41.53;96353.03;4988875;28;20026;-79
2020/12/04 04:07:07;;;;;;;2.25;1.70;;;;;;;20.47;41.32;96347.78;4997296;28;20122;-80
2020/12/04 04:09:32;;;;;;;2.13;1.67;;;;;;;20.47;41.47;96341.69;5011635;28;20053;-81
2020/12/04 04:11:58;;;;;;;2.60;1.60;;;;;;;20.46;41.68;96350.53;5005611;28;20080;-80
2020/12/04 04:14:24;;;;;;;2.40;1.80;;;;;;;20.48;41.47;96332.81;4977582;28;20049;-81
2020/12/04 04:16:49;;;;;;;1.50;1.33;;;;;;;20.46;41.45;96340.84;4983716;28;20064;-79
2020/12/04 04:19:15;;;;;;;2.35;1.90;;;;;;;20.45;41.46;96340.97;5010046;28;20026;-79
2020/12/04 04:21:40;;;;;;;1.73;1.33;;;;;;;20.47;41.55;96347.78;5000096;28;20085;-78
2020/12/04 04:24:09;;;;;;;2.85;1.88;;;;;;;20.48;41.37;96349.44;5001832;28;20030;-77
2020/12/04 04:26:34;;;;;;;2.92;1.65;;;;;;;20.47;41.53;96345.13;4984954;28;20552;-80
2020/12/04 04:29:00;;;;;;;2.00;1.40;;;;;;;20.49;41.46;96350.25;4991819;28;20042;-79
2020/12/04 04:31:26;;;;;;;2.28;1.70;;;;;;;20.48;41.39;96359.97;4991627;28;20038;-78
2020/12/04 04:33:51;;;;;;;1.60;1.25;;;;;;;20.49;41.49;96355.53;4993680;28;20504;-79
2020/12/04 04:36:16;;;;;;;1.95;1.45;;;;;;;20.48;41.63;96357.31;4992203;28;20026;-79
2020/12/04 04:38:42;;;;;;;2.03;1.40;;;;;;;20.48;41.44;96361.75;5005401;28;20570;-78
2020/12/04 04:41:07;;;;;;;1.67;1.38;;;;;;;20.46;41.61;96356.63;4981387;28;20023;-80
2020/12/04 04:43:33;;;;;;;2.50;1.70;;;;;;;20.47;41.67;96374.06;4991108;28;20033;-78
2020/12/04 04:46:10;;;;;;;2.15;1.70;;;;;;;20.47;41.53;96373.25;5003456;28;20031;-80
2020/12/04 04:48:36;;;;;;;1.73;1.50;;;;;;;20.47;41.61;96383.75;5007345;28;20088;-78
2020/12/04 04:51:02;;;;;;;1.70;1.13;;;;;;;20.46;41.54;96369.78;4993268;28;20046;-80
2020/12/04 04:53:28;;;;;;;1.90;1.50;;;;;;;20.47;41.53;96381.97;4992567;28;20077;-80
2020/12/04 04:55:55;;;;;;;1.33;1.10;;;;;;;20.46;41.55;96376.84;4993999;28;20038;-81
2020/12/04 04:58:20;;;;;;;1.63;1.25;;;;;;;20.47;41.58;96376.69;4975033;28;20026;-80
2020/12/04 05:00:46;;;;;;;2.15;1.30;;;;;;;20.48;41.49;96372.25;4990922;28;20038;-79
2020/12/04 05:03:11;;;;;;;1.58;1.20;;;;;;;20.46;41.70;96369.78;4999043;28;20061;-80
2020/12/04 05:05:45;;;;;;;1.58;1.13;;;;;;;20.45;41.64;96383.06;4984157;28;20126;-80
2020/12/04 05:08:11;;;;;;;;;;;;;;;20.44;41.42;96384.84;4992573;28;20108;-81
2020/12/04 05:10:37;;;;;;;2.38;1.42;;;;;;;20.47;41.71;96381.13;5001931;28;20013;-79
2020/12/04 05:13:02;;;;;;;1.52;0.90;;;;;;;20.47;41.54;96391.66;4995052;28;20457;-79
2020/12/04 05:15:29;;;;;;;1.92;1.00;;;;;;;20.47;41.66;96384.59;5005252;28;20081;-79
2020/12/04 05:18:10;;;;;;;1.10;1.00;;;;;;;20.49;41.23;96384.44;4990460;28;20057;-79
2020/12/04 05:20:41;;;;;;;1.45;1.10;;;;;;;20.51;41.54;96386.00;5005462;28;20038;-78
2020/12/04 05:23:07;;;;;;;1.50;1.23;;;;;;;20.52;41.54;96376.31;5007987;28;20045;-77
2020/12/04 05:25:47;;;;;;;1.27;0.93;;;;;;;20.52;41.44;96406.09;4993122;28;20026;-78
2020/12/04 05:28:21;;;;;;;1.25;1.15;;;;;;;20.51;41.29;96393.91;5002151;28;20033;-80
2020/12/04 05:31:04;;;;;;;1.85;0.90;;;;;;;20.51;41.62;96395.69;5006238;28;20026;-78
2020/12/04 05:33:32;;;;;;;1.58;1.30;;;;;;;20.46;41.67;96396.06;4989178;28;20499;-78
2020/12/04 05:35:58;;;;;;;1.15;0.95;;;;;;;20.47;41.33;96400.38;4997029;28;20108;-79
2020/12/04 05:38:23;;;;;;;1.33;1.08;;;;;;;20.46;41.62;96403.13;4992135;28;20511;-79
2020/12/04 05:40:52;;;;;;;1.42;1.20;;;;;;;20.45;41.75;96411.97;4972611;28;20577;-78
2020/12/04 05:43:47;;;;;;;1.38;1.00;;;;;;;20.45;41.66;96409.34;4981187;28;20040;-79
2020/12/04 05:46:26;;;;;;;1.77;1.20;;;;;;;20.45;41.65;96404.91;4976621;28;20042;-79
2020/12/04 05:49:08;;;;;;;2.33;1.30;;;;;;;20.45;41.45;96407.53;4980147;28;20561;-78
2020/12/04 05:51:39;;;;;;;1.15;0.93;;;;;;;20.44;41.61;96413.75;4990806;28;20403;-78
2020/12/04 05:54:07;;;;;;;1.20;1.00;;;;;;;20.46;41.65;96413.66;4978435;28;20026;-80
2020/12/04 05:56:33;;;;;;;1.23;1.00;;;;;;;20.45;41.48;96423.31;4989367;28;20041;-79
2020/12/04 05:59:02;;;;;;;0.93;0.80;;;;;;;20.45;41.66;96425.94;4992928;28;20057;-80
2020/12/04 06:01:29;;;;;;;1.33;0.80;;;;;;;20.45;41.71;96433.84;5003770;28;20033;-79
2020/12/04 06:03:56;;;;;;;0.95;0.90;;;;;;;20.47;41.50;96425.84;4989059;28;20521;-79
2020/12/04 06:06:32;;;;;;;1.17;1.00;;;;;;;20.43;41.83;96435.75;4985217;28;20053;-78
2020/12/04 06:09:03;;;;;;;2.58;1.20;;;;;;;20.45;41.58;96430.38;4987912;28;20117;-77
2020/12/04 06:11:38;;;;;;;0.80;0.80;;;;;;;20.45;41.80;96433.84;4997799;28;20061;-79
2020/12/04 06:14:16;;;;;;;0.98;0.88;;;;;;;20.46;41.52;96445.22;4989158;28;20026;-77
2020/12/04 06:16:42;;;;;;;1.13;0.90;;;;;;;20.49;41.51;96451.03;4988948;28;20395;-79
2020/12/04 06:19:31;;;;;;;1.02;0.80;;;;;;;20.45;41.49;96440.91;4976424;28;20045;-80
2020/12/04 06:22:09;;;;;;;1.20;0.88;;;;;;;20.46;41.60;96459.19;4991811;28;20506;-79
2020/12/04 06:25:02;;;;;;;5.72;1.35;;;;;;;20.46;41.64;96453.91;4988268;28;20069;-77
2020/12/04 06:27:34;;;;;;;10.65;1.30;;;;;;;20.48;41.57;96464.31;4985732;28;20057;-77
2020/12/04 06:30:00;;;;;;;6.75;1.20;;;;;;;20.48;41.60;96465.16;4987576;28;20507;-78
2020/12/04 06:32:41;;;;;;;8.18;1.08;;;;;;;20.47;41.51;96476.63;4987808;28;20065;-79
2020/12/04 06:35:08;;;;;;;14.77;1.58;;;;;;;20.48;41.65;96475.66;5004033;28;20049;-77
2020/12/04 06:37:41;;;;;;;16.90;1.20;;;;;;;20.49;41.71;96484.38;4999160;28;20034;-79
2020/12/04 06:40:27;;;;;;;14.55;1.48;;;;;;;20.49;41.57;96476.50;4997891;28;20115;-76
2020/12/04 06:42:55;;;;;;;10.38;1.20;;;;;;;20.55;41.93;96473.38;5004894;28;20092;-79
2020/12/04 06:45:21;;;;;;;7.60;1.27;;;;;;;20.59;41.92;96495.00;5030237;28;20548;-78
2020/12/04 06:48:09;;;;;;;5.60;1.45;;;;;;;20.59;41.91;96489.72;5030386;28;20065;-79
2020/12/04 06:50:40;;;;;;;7.45;1.77;;;;;;;20.59;42.04;96503.72;5003210;28;20085;-78
2020/12/04 06:53:07;;;;;;;7.53;1.25;;;;;;;20.63;41.91;96509.56;5008488;28;20026;-78
2020/12/04 06:55:32;;;;;;;6.35;1.20;;;;;;;20.61;42.25;96517.59;5004357;28;20034;-77
2020/12/04 06:57:59;;;;;;;6.72;1.27;;;;;;;20.60;42.13;96533.50;4996792;28;20038;-78
2020/12/04 07:00:26;;;;;;;3.05;1.25;;;;;;;20.62;41.97;96534.22;4994268;28;20026;-76
2020/12/04 07:02:52;;;;;;;12.32;1.40;;;;;;;20.66;41.99;96533.00;4990881;28;20030;-78
2020/12/04 07:05:26;;;;;;;3.88;1.42;;;;;;;20.65;42.09;96544.47;4990998;28;20034;-79
2020/12/04 07:08:05;;;;;;;3.72;1.15;;;;;;;20.65;41.90;96565.53;4994335;28;20042;-77
2020/12/04 07:10:32;;;;;;;9.18;1.50;;;;;;;20.65;41.90;96571.63;4990048;28;20076;-77
2020/12/04 07:12:59;;;;;;;4.88;1.80;;;;;;;20.67;42.08;96582.84;4990316;28;20498;-80
2020/12/04 07:15:25;;;;;;;5.80;1.10;;;;;;;20.65;42.23;96599.72;4991869;28;20041;-77
2020/12/04 07:17:50;;;;;;;4.68;1.17;;;;;;;20.66;42.29;96607.50;4996640;28;20041;-79
2020/12/04 07:20:15;;;;;;;8.07;1.30;;;;;;;20.64;42.00;96605.94;5005122;28;20396;-79
2020/12/04 07:22:41;;;;;;;4.35;0.90;;;;;;;20.62;42.11;96606.09;5009386;28;20030;-77
2020/12/04 07:25:06;;;;;;;9.00;1.05;;;;;;;20.63;42.02;96602.47;5007128;28;20526;-77
2020/12/04 07:27:32;;;;;;;6.82;1.58;;;;;;;20.66;42.24;96625.91;5006704;28;20027;-80
2020/12/04 07:29:58;;;;;;;9.65;1.30;;;;;;;20.64;41.89;96637.50;4992042;28;20031;-77
2020/12/04 07:32:25;;;;;;;9.85;1.23;;;;;;;20.65;42.04;96644.44;5007207;28;20675;-78
2020/12/04 07:34:52;;;;;;;4.93;1.13;;;;;;;20.62;42.15;96642.91;5002279;28;20033;-77
2020/12/04 07:37:18;;;;;;;3.83;1.67;;;;;;;20.65;41.84;96660.22;5010111;28;20053;-77
2020/12/04 07:39:44;;;;;;;8.73;1.10;;;;;;;20.65;41.91;96657.59;5010038;28;20510;-78
2020/12/04 07:42:12;;;;;;;3.42;1.20;;;;;;;20.64;41.76;96669.91;5009738;28;20499;-79
2020/12/04 07:44:50;;;;;;;6.10;1.20;;;;;;;20.64;41.79;96677.78;5013377;28;20080;-77
2020/12/04 07:47:17;;;;;;;2.58;1.35;;;;;;;20.62;42.07;96685.00;5013650;28;20034;-79
2020/12/04 07:49:47;;;;;;;5.20;1.05;;;;;;;20.64;41.79;96690.94;5012680;28;20034;-78
2020/12/04 07:52:14;;;;;;;2.83;1.00;;;;;;;20.64;41.90;96687.50;5011434;28;20030;-76
2020/12/04 07:54:40;;;;;;;10.00;1.88;;;;;;;20.65;41.95;96682.09;5013017;28;20514;-80
2020/12/04 07:57:06;;;;;;;8.15;2.17;;;;;;;20.67;41.88;96701.22;5028888;28;20038;-80
2020/12/04 07:59:34;;;;;;;6.30;2.22;;;;;;;20.67;41.94;96706.50;5014234;28;20376;-80
2020/12/04 08:02:01;;;;;;;10.55;3.78;;;;;;;20.69;42.03;96704.59;5013783;28;20025;-82
2020/12/04 08:04:31;;;;;;;14.98;4.55;;;;;;;20.84;41.53;96712.25;5012827;28;20022;-80
2020/12/04 08:07:10;;;;;;;12.98;4.75;;;;;;;21.36;41.05;96696.69;4996391;28;20132;-77
2020/12/04 08:09:38;;;;;;;17.05;6.38;;;;;;;21.30;40.65;96702.50;5013372;28;20034;-77
2020/12/04 08:12:09;;;;;;;11.63;5.55;;;;;;;21.12;40.99;96703.00;4996484;28;20026;-77
2020/12/04 08:14:35;;;;;;;11.80;5.43;;;;;;;21.01;41.24;96702.19;4991494;28;20030;-79
2020/12/04 08:17:01;;;;;;;11.30;5.95;;;;;;;21.02;41.38;96699.41;5012966;28;20104;-77
2020/12/04 08:19:31;;;;;;;12.70;6.30;;;;;;;21.16;41.22;96700.13;5006168;28;20144;-78
2020/12/04 08:22:07;;;;;;;9.80;5.05;;;;;;;21.58;40.52;96703.69;4993308;28;20031;-79
2020/12/04 08:24:37;;;;;;;14.90;5.93;;;;;;;21.63;40.87;96708.63;4993201;28;20073;-76
2020/12/04 08:27:02;;;;;;;11.05;5.43;;;;;;;21.47;40.72;96709.00;4977062;28;20108;-78
2020/12/04 08:29:28;;;;;;;12.98;5.57;;;;;;;21.23;40.83;96709.19;4992896;28;20499;-77
2020/12/04 08:32:07;;;;;;;10.23;4.93;;;;;;;21.06;41.13;96716.66;4985020;28;20635;-78
2020/12/04 08:34:33;;;;;;;11.00;5.05;;;;;;;21.00;41.44;96722.44;5009202;28;20030;-78
2020/12/04 08:37:01;;;;;;;7.18;4.28;;;;;;;20.98;41.31;96727.78;4993658;28;20509;-76
2020/12/04 08:39:34;;;;;;;12.23;4.88;;;;;;;20.92;41.22;96730.94;4993105;28;20507;-78
2020/12/04 08:42:17;;;;;;;10.38;4.78;;;;;;;20.89;41.44;96733.78;4992971;28;20088;-78
2020/12/04 08:44:53;;;;;;;10.25;4.43;;;;;;;20.91;41.28;96747.69;4976743;28;20042;-79
2020/12/04 08:47:35;;;;;;;10.27;4.88;;;;;;;20.90;41.44;96743.38;4976448;28;20110;-78
2020/12/04 08:50:21;;;;;;;17.30;4.75;;;;;;;20.90;41.20;96755.66;4976702;28;20030;-78
2020/12/04 08:52:54;;;;;;;8.25;4.20;;;;;;;20.90;41.43;96750.41;4993214;28;20034;-76
2020/12/04 08:55:22;;;;;;;7.47;4.07;;;;;;;20.89;41.42;96770.63;4993078;28;20038;-78
2020/12/04 08:57:50;;;;;;;8.27;3.90;;;;;;;20.89;41.32;96761.88;4976867;28;20069;-77
2020/12/04 09:00:18;;;;;;;9.70;3.88;;;;;;;20.90;41.29;96768.81;4992715;28;20503;-79
2020/12/04 09:02:44;;;;;;;10.73;3.58;;;;;;;20.89;41.27;96778.53;4992802;28;20072;-76
2020/12/04 09:05:13;;;;;;;8.23;4.30;;;;;;;20.90;41.29;96777.59;4992890;28;20026;-76
2020/12/04 09:07:38;;;;;;;5.47;3.22;;;;;;;20.91;41.12;96781.88;4976638;28;20058;-78
2020/12/04 09:10:06;;;;;;;8.00;3.72;;;;;;;20.90;41.18;96784.63;4976464;28;20085;-76
2020/12/04 09:12:31;;;;;;;6.68;3.42;;;;;;;20.96;41.28;96787.59;4982386;28;20030;-80
2020/12/04 09:14:56;;;;;;;8.13;3.40;;;;;;;20.94;41.26;96796.59;4992658;28;20407;-78
2020/12/04 09:17:22;;;;;;;6.35;2.90;;;;;;;20.94;41.29;96784.25;4992559;28;20484;-76
2020/12/04 09:19:47;;;;;;;5.03;3.05;;;;;;;20.96;41.17;96799.94;4992726;28;20070;-78
2020/12/04 09:22:14;;;;;;;6.80;3.08;;;;;;;20.98;41.22;96805.94;4992449;28;20038;-78
2020/12/04 09:24:41;;;;;;;5.68;3.22;;;;;;;21.02;40.84;96811.78;4992652;28;20033;-78
2020/12/04 09:27:06;;;;;;;6.97;2.67;;;;;;;21.00;41.20;96811.91;4992341;28;20030;-78
2020/12/04 09:29:32;;;;;;;5.75;2.70;;;;;;;20.96;41.22;96819.19;4992825;28;20041;-76
2020/12/04 09:32:05;;;;;;;4.65;2.53;;;;;;;20.94;41.27;96829.00;4992191;28;20053;-76
2020/12/04 09:34:31;;;;;;;7.07;2.80;;;;;;;20.90;41.19;96826.72;5000299;28;20499;-76
2020/12/04 09:37:08;;;;;;;5.60;2.78;;;;;;;20.88;41.22;96829.50;4992515;28;20037;-77
2020/12/04 09:39:33;;;;;;;5.15;2.67;;;;;;;20.90;41.23;96830.22;4975952;28;20031;-76
2020/12/04 09:41:59;;;;;;;4.60;2.60;;;;;;;20.87;41.35;96845.38;4991847;28;20093;-79
2020/12/04 09:44:25;;;;;;;4.25;2.22;;;;;;;20.82;41.26;96843.13;4975859;28;20026;-78
2020/12/04 09:46:51;;;;;;;7.13;2.20;;;;;;;20.79;41.37;96828.41;4991889;28;20043;-76
2020/12/04 09:49:17;;;;;;;4.47;2.35;;;;;;;20.80;41.21;96837.13;4975790;28;20034;-78
2020/12/04 09:51:42;;;;;;;4.65;2.03;;;;;;;20.79;40.98;96833.66;4991825;28;20121;-79
2020/12/04 09:54:08;;;;;;;5.60;2.60;;;;;;;20.79;41.16;96836.31;4991673;28;20069;-79
2020/12/04 09:56:34;;;;;;;3.40;1.80;;;;;;;20.81;41.13;96839.66;4975437;28;20041;-78
2020/12/04 09:59:00;;;;;;;4.15;1.75;;;;;;;20.81;41.14;96828.28;4991579;28;20114;-76
2020/12/04 10:01:25;;;;;;;4.30;2.10;;;;;;;20.81;41.05;96838.81;4992197;28;20121;-76
2020/12/04 10:03:50;;;;;;;4.40;2.38;;;;;;;20.79;40.99;96836.31;4991734;28;20087;-79
2020/12/04 10:06:18;;;;;;;3.65;1.85;;;;;;;20.82;40.96;96837.84;5010947;28;20034;-77
2020/12/04 10:08:43;;;;;;;2.28;1.60;;;;;;;20.80;40.94;96847.66;5011525;28;20033;-78
2020/12/04 10:11:10;;;;;;;4.00;2.13;;;;;;;20.81;41.04;96854.59;4994522;28;20095;-79
2020/12/04 10:13:36;;;;;;;3.13;1.67;;;;;;;20.81;41.05;96859.84;5010876;28;20073;-78
2020/12/04 10:16:03;;;;;;;3.25;1.80;;;;;;;20.82;40.85;96861.53;5010689;28;20143;-79
2020/12/04 10:18:29;;;;;;;4.68;2.22;;;;;;;20.87;41.01;96846.25;5010597;28;20063;-79
2020/12/04 10:20:57;;;;;;;3.60;1.67;;;;;;;20.88;40.90;96854.97;5010947;28;20034;-76
2020/12/04 10:23:22;;;;;;;3.72;1.90;;;;;;;20.89;41.12;96868.00;5011085;28;20034;-77
2020/12/04 10:25:48;;;;;;;4.43;2.03;;;;;;;20.89;40.99;96857.50;5010861;28;20040;-78
2020/12/04 10:28:15;;;;;;;5.82;2.03;;;;;;;20.91;40.91;96866.09;5010811;28;20029;-77
2020/12/04 10:30:41;;;;;;;6.13;1.85;;;;;;;20.93;41.07;96864.19;4994125;28;20030;-80
2020/12/04 10:33:07;;;;;;;3.75;2.03;;;;;;;20.92;40.84;96853.78;5010678;28;20469;-77
2020/12/04 10:35:32;;;;;;;4.18;1.80;;;;;;;20.90;41.10;96863.56;4991029;28;20038;-79
2020/12/04 10:37:59;;;;;;;6.13;1.92;;;;;;;20.89;41.14;96868.00;4992372;28;20085;-79
2020/12/04 10:40:24;;;;;;;3.72;1.70;;;;;;;20.89;40.87;96849.59;5002551;28;20117;-79
2020/12/04 10:42:51;;;;;;;3.47;1.10;;;;;;;20.90;41.16;96846.00;5010512;28;20133;-78
2020/12/04 10:45:17;;;;;;;3.70;2.00;;;;;;;20.88;40.88;96844.44;4993744;28;20034;-78
2020/12/04 10:47:43;;;;;;;3.25;2.10;;;;;;;20.87;41.14;96837.50;5010850;28;20034;-78
2020/12/04 10:50:08;;;;;;;5.35;1.40;;;;;;;20.90;41.06;96851.28;5010548;28;20030;-79
2020/12/04 10:52:34;;;;;;;7.53;3.70;;;;;;;20.90;41.22;96840.75;4994727;28;20112;-80
2020/12/04 10:54:59;;;;;;;19.27;7.45;;;;;;;20.88;40.98;96847.06;4994124;28;20038;-80
2020/12/04 10:57:26;;;;;;;15.25;8.80;;;;;;;20.87;41.18;96845.38;4993263;28;20041;-80
2020/12/04 10:59:52;;;;;;;15.90;8.98;;;;;;;20.87;41.12;96842.75;5010248;28;20041;-80
2020/12/04 11:02:30;;;;;;;32.28;18.70;;;;;;;20.86;41.18;96843.75;5011605;28;20038;-80
2020/12/04 11:07:39;;;;;;;32.15;18.38;;;;;;;20.87;40.95;96837.50;5011631;28;20038;-79
2020/12/04 11:10:04;;;;;;;35.83;19.70;;;;;;;20.87;41.00;96840.13;5010017;28;20484;-78
2020/12/04 11:12:30;;;;;;;33.42;19.33;;;;;;;20.88;41.24;96836.53;5009627;28;20556;-79
2020/12/04 11:14:55;;;;;;;36.80;21.75;;;;;;;20.89;41.03;96839.06;5011671;28;20046;-79
2020/12/04 11:17:21;;;;;;;39.67;18.88;;;;;;;20.90;41.04;96832.00;5010485;28;20045;-79
2020/12/04 11:19:46;;;;;;;47.83;19.30;;;;;;;20.92;41.17;96844.09;4997401;28;20060;-77
2020/12/04 11:22:13;;;;;;;30.67;16.83;;;;;;;20.95;41.00;96837.75;5014137;28;20411;-78
2020/12/04 11:24:40;;;;;;;34.67;18.45;;;;;;;20.97;40.83;96836.66;5009666;28;20045;-80
2020/12/04 11:27:05;;;;;;;38.05;17.55;;;;;;;20.99;40.94;96841.81;4996064;28;20038;-79
2020/12/04 11:29:31;;;;;;;30.73;15.57;;;;;;;21.03;40.93;96851.13;5013606;28;20097;-77
2020/12/04 11:31:56;;;;;;;28.75;15.48;;;;;;;21.05;40.78;96841.34;5010456;28;20388;-76
2020/12/04 11:34:22;;;;;;;30.48;14.95;;;;;;;21.11;40.75;96856.66;5000481;28;20034;-77
2020/12/04 11:36:47;;;;;;;27.52;15.73;;;;;;;21.14;40.69;96853.78;5010823;28;20068;-77